createdAt,value
2023-02-15T00:00:36.092Z,0.00
2023-02-15T00:01:36.050Z,0.00
2023-02-15T00:02:36.013Z,0.00
2023-02-15T00:03:35.993Z,0.00
2023-02-15T00:04:36.004Z,0.00
2023-02-15T00:05:35.902Z,0.00
2023-02-15T00:06:35.851Z,0.00
2023-02-15T00:07:35.821Z,0.00
2023-02-15T00:08:35.779Z,0.00
2023-02-15T00:09:35.739Z,0.00
2023-02-15T00:10:35.764Z,0.00
2023-02-15T00:11:35.672Z,0.00
2023-02-15T00:12:35.636Z,0.00
2023-02-15T00:13:35.589Z,0.00
2023-02-15T00:14:35.546Z,0.00
2023-02-15T00:15:35.508Z,0.00
2023-02-15T00:16:35.582Z,0.00
2023-02-15T00:17:35.427Z,0.00
2023-02-15T00:18:35.391Z,0.00
2023-02-15T00:19:35.356Z,0.00
2023-02-15T00:20:35.320Z,0.00
2023-02-15T00:21:35.275Z,0.00
2023-02-15T00:22:35.284Z,0.00
2023-02-15T00:23:35.200Z,0.00
2023-02-15T00:24:35.168Z,0.00
2023-02-15T00:25:35.123Z,0.00
2023-02-15T00:26:35.079Z,0.00
2023-02-15T00:27:35.044Z,0.00
2023-02-15T00:28:35.058Z,0.00
2023-02-15T00:29:34.961Z,0.00
2023-02-15T00:30:34.962Z,0.00
2023-02-15T00:31:35.005Z,0.00
2023-02-15T00:32:34.841Z,0.00
2023-02-15T00:33:34.811Z,0.00
2023-02-15T00:34:34.821Z,0.00
2023-02-15T00:35:34.722Z,0.00
2023-02-15T00:36:34.686Z,0.00
2023-02-15T00:37:34.644Z,0.00
2023-02-15T00:38:34.607Z,0.00
2023-02-15T00:39:34.571Z,0.00
2023-02-15T00:40:34.590Z,0.00
2023-02-15T00:41:34.483Z,0.00
2023-02-15T00:42:34.449Z,0.00
2023-02-15T00:43:34.424Z,0.00
2023-02-15T00:44:34.375Z,0.00
2023-02-15T00:45:34.342Z,0.00
2023-02-15T00:46:34.355Z,0.00
2023-02-15T00:47:34.255Z,0.00
2023-02-15T00:48:34.219Z,0.00
2023-02-15T00:49:34.184Z,0.00
2023-02-15T00:50:34.144Z,0.00
2023-02-15T00:51:34.125Z,0.00
2023-02-15T00:52:34.115Z,0.00
2023-02-15T00:53:34.024Z,0.00
2023-02-15T00:54:33.993Z,0.00
2023-02-15T00:55:33.950Z,0.00
2023-02-15T00:56:33.933Z,0.00
2023-02-15T00:57:33.873Z,0.00
2023-02-15T00:58:33.890Z,0.00
2023-02-15T00:59:33.793Z,0.00
2023-02-15T01:00:33.746Z,0.00
2023-02-15T01:01:33.789Z,0.00
2023-02-15T01:02:33.672Z,0.00
2023-02-15T01:03:33.640Z,0.00
2023-02-15T01:04:33.695Z,0.00
2023-02-15T01:05:33.559Z,0.00
2023-02-15T01:06:33.524Z,0.00
2023-02-15T01:07:33.484Z,0.00
2023-02-15T01:08:33.446Z,0.00
2023-02-15T01:09:33.396Z,0.00
2023-02-15T01:10:33.453Z,0.00
2023-02-15T01:11:33.326Z,0.00
2023-02-15T01:12:33.285Z,0.00
2023-02-15T01:13:33.241Z,0.00
2023-02-15T01:14:33.209Z,0.00
2023-02-15T01:15:33.205Z,0.00
2023-02-15T01:16:33.199Z,0.00
2023-02-15T01:17:33.152Z,0.00
2023-02-15T01:18:33.048Z,0.00
2023-02-15T01:19:33.013Z,0.00
2023-02-15T01:20:32.973Z,0.00
2023-02-15T01:21:32.932Z,0.00
2023-02-15T01:22:32.948Z,0.00
2023-02-15T01:23:32.856Z,0.00
2023-02-15T01:24:32.811Z,0.00
2023-02-15T01:25:32.776Z,0.00
2023-02-15T01:26:32.739Z,0.00
2023-02-15T01:27:32.699Z,0.00
2023-02-15T01:28:32.731Z,0.00
2023-02-15T01:29:32.621Z,0.00
2023-02-15T01:30:32.580Z,0.00
2023-02-15T01:31:32.676Z,0.00
2023-02-15T01:32:32.505Z,0.00
2023-02-15T01:33:32.463Z,0.00
2023-02-15T01:34:32.493Z,0.00
2023-02-15T01:35:32.396Z,0.00
2023-02-15T01:36:32.360Z,0.00
2023-02-15T01:37:32.321Z,0.00
2023-02-15T01:38:32.264Z,0.00
2023-02-15T01:39:32.234Z,0.00
2023-02-15T01:40:32.251Z,0.00
2023-02-15T01:41:32.152Z,0.00
2023-02-15T01:42:32.111Z,0.00
2023-02-15T01:43:32.078Z,0.00
2023-02-15T01:44:32.046Z,0.00
2023-02-15T01:45:31.992Z,0.00
2023-02-15T01:46:32.087Z,0.00
2023-02-15T01:47:31.992Z,0.00
2023-02-15T01:48:31.874Z,0.00
2023-02-15T01:49:31.838Z,0.00
2023-02-15T01:50:31.800Z,0.00
2023-02-15T01:51:31.761Z,0.00
2023-02-15T01:52:31.737Z,0.00
2023-02-15T01:53:31.760Z,0.00
2023-02-15T01:54:31.655Z,0.00
2023-02-15T01:55:31.600Z,0.00
2023-02-15T01:56:31.577Z,0.00
2023-02-15T01:57:31.536Z,0.00
2023-02-15T01:58:31.491Z,0.00
2023-02-15T01:59:31.505Z,0.00
2023-02-15T02:00:31.403Z,0.00
2023-02-15T02:01:31.393Z,0.00
2023-02-15T02:02:31.414Z,0.00
2023-02-15T02:03:31.290Z,0.00
2023-02-15T02:04:31.248Z,0.00
2023-02-15T02:05:31.264Z,0.00
2023-02-15T02:06:31.177Z,0.00
2023-02-15T02:07:31.138Z,0.00
2023-02-15T02:08:31.095Z,0.00
2023-02-15T02:09:31.049Z,0.00
2023-02-15T02:10:31.651Z,0.00
2023-02-15T02:11:31.030Z,0.00
2023-02-15T02:12:30.975Z,0.00
2023-02-15T02:13:30.902Z,0.00
2023-02-15T02:14:30.857Z,0.00
2023-02-15T02:15:30.815Z,0.00
2023-02-15T02:16:30.845Z,0.00
2023-02-15T02:17:30.748Z,0.00
2023-02-15T02:18:30.701Z,0.00
2023-02-15T02:19:30.664Z,0.00
2023-02-15T02:20:30.625Z,0.00
2023-02-15T02:21:30.594Z,0.00
2023-02-15T02:22:31.222Z,0.00
2023-02-15T02:23:30.542Z,0.00
2023-02-15T02:24:30.467Z,0.00
2023-02-15T02:25:30.435Z,0.00
2023-02-15T02:26:30.383Z,0.00
2023-02-15T02:27:30.348Z,0.00
2023-02-15T02:28:30.382Z,0.00
2023-02-15T02:29:30.268Z,0.00
2023-02-15T02:30:30.349Z,0.00
2023-02-15T02:31:30.300Z,0.00
2023-02-15T02:32:30.156Z,0.00
2023-02-15T02:33:30.118Z,0.00
2023-02-15T02:34:30.139Z,0.00
2023-02-15T02:35:30.095Z,0.00
2023-02-15T02:36:30.001Z,0.00
2023-02-15T02:37:29.958Z,0.00
2023-02-15T02:38:29.922Z,0.00
2023-02-15T02:39:29.881Z,0.00
2023-02-15T02:40:29.902Z,0.00
2023-02-15T02:41:29.829Z,0.00
2023-02-15T02:42:29.785Z,0.00
2023-02-15T02:43:29.732Z,0.00
2023-02-15T02:44:29.683Z,0.00
2023-02-15T02:45:29.645Z,0.00
2023-02-15T02:46:29.699Z,0.00
2023-02-15T02:47:29.597Z,0.00
2023-02-15T02:48:29.524Z,0.00
2023-02-15T02:49:29.492Z,0.00
2023-02-15T02:50:29.453Z,0.00
2023-02-15T02:51:29.405Z,0.00
2023-02-15T02:52:29.428Z,0.00
2023-02-15T02:53:29.328Z,0.00
2023-02-15T02:54:29.304Z,0.00
2023-02-15T02:55:29.250Z,0.00
2023-02-15T02:56:29.270Z,0.00
2023-02-15T02:57:29.176Z,0.00
2023-02-15T02:58:29.126Z,0.00
2023-02-15T02:59:29.111Z,0.00
2023-02-15T03:00:29.059Z,0.00
2023-02-15T03:01:29.114Z,0.00
2023-02-15T03:02:29.019Z,0.00
2023-02-15T03:03:28.944Z,0.00
2023-02-15T03:04:28.905Z,0.00
2023-02-15T03:05:28.854Z,0.00
2023-02-15T03:06:28.888Z,0.00
2023-02-15T03:07:28.789Z,0.00
2023-02-15T03:08:28.747Z,0.00
2023-02-15T03:09:28.698Z,0.00
2023-02-15T03:10:28.671Z,0.00
2023-02-15T03:11:28.692Z,0.00
2023-02-15T03:12:28.587Z,0.00
2023-02-15T03:13:28.555Z,0.00
2023-02-15T03:14:28.508Z,0.00
2023-02-15T03:15:28.470Z,0.00
2023-02-15T03:16:28.500Z,0.00
2023-02-15T03:17:28.446Z,0.00
2023-02-15T03:18:28.348Z,0.00
2023-02-15T03:19:28.331Z,0.00
2023-02-15T03:20:28.272Z,0.00
2023-02-15T03:21:28.228Z,0.00
2023-02-15T03:22:28.228Z,0.00
2023-02-15T03:23:28.241Z,0.00
2023-02-15T03:24:28.119Z,0.00
2023-02-15T03:25:28.074Z,0.00
2023-02-15T03:26:28.034Z,0.00
2023-02-15T03:27:28.008Z,0.00
2023-02-15T03:28:27.967Z,0.00
2023-02-15T03:29:27.992Z,0.00
2023-02-15T03:30:27.923Z,0.00
2023-02-15T03:31:27.954Z,0.00
2023-02-15T03:32:27.806Z,0.00
2023-02-15T03:33:27.768Z,0.00
2023-02-15T03:34:27.724Z,0.00
2023-02-15T03:35:27.746Z,0.00
2023-02-15T03:36:27.659Z,0.00
2023-02-15T03:37:27.617Z,0.00
2023-02-15T03:38:27.568Z,0.00
2023-02-15T03:39:27.533Z,0.00
2023-02-15T03:40:27.495Z,0.00
2023-02-15T03:41:27.502Z,0.00
2023-02-15T03:42:27.453Z,0.00
2023-02-15T03:43:27.382Z,0.00
2023-02-15T03:44:27.334Z,0.00
2023-02-15T03:45:27.302Z,0.00
2023-02-15T03:46:27.364Z,0.00
2023-02-15T03:47:27.240Z,0.00
2023-02-15T03:48:27.186Z,0.00
2023-02-15T03:49:27.143Z,0.00
2023-02-15T03:50:27.110Z,0.00
2023-02-15T03:51:27.063Z,0.00
2023-02-15T03:52:27.093Z,0.00
2023-02-15T03:53:26.981Z,0.00
2023-02-15T03:54:26.944Z,0.00
2023-02-15T03:55:26.905Z,0.00
2023-02-15T03:56:26.866Z,0.00
2023-02-15T03:57:26.836Z,0.00
2023-02-15T03:58:26.858Z,0.00
2023-02-15T03:59:26.742Z,0.00
2023-02-15T04:00:26.703Z,0.00
2023-02-15T04:01:26.736Z,0.00
2023-02-15T04:02:26.649Z,0.00
2023-02-15T04:03:26.593Z,0.00
2023-02-15T04:04:26.620Z,0.00
2023-02-15T04:05:26.515Z,0.00
2023-02-15T04:06:26.522Z,0.00
2023-02-15T04:07:26.506Z,0.00
2023-02-15T04:08:26.391Z,0.00
2023-02-15T04:09:26.363Z,0.00
2023-02-15T04:10:26.337Z,0.00
2023-02-15T04:11:26.283Z,0.00
2023-02-15T04:12:26.317Z,0.00
2023-02-15T04:13:26.211Z,0.00
2023-02-15T04:14:26.167Z,0.00
2023-02-15T04:15:26.132Z,0.00
2023-02-15T04:16:26.090Z,0.00
2023-02-15T04:17:26.042Z,0.00
2023-02-15T04:18:26.078Z,0.00
2023-02-15T04:19:25.983Z,0.00
2023-02-15T04:20:25.969Z,0.00
2023-02-15T04:21:25.893Z,0.00
2023-02-15T04:22:25.886Z,0.00
2023-02-15T04:23:25.818Z,0.00
2023-02-15T04:24:25.858Z,0.00
2023-02-15T04:25:25.742Z,0.00
2023-02-15T04:26:25.687Z,0.00
2023-02-15T04:27:25.654Z,0.00
2023-02-15T04:28:25.636Z,0.00
2023-02-15T04:29:25.574Z,0.00
2023-02-15T04:30:25.726Z,0.00
2023-02-15T04:31:25.548Z,0.00
2023-02-15T04:32:25.452Z,0.00
2023-02-15T04:33:25.438Z,0.00
2023-02-15T04:34:25.387Z,0.00
2023-02-15T04:35:25.336Z,0.00
2023-02-15T04:36:25.386Z,0.00
2023-02-15T04:37:25.267Z,0.00
2023-02-15T04:38:25.219Z,0.00
2023-02-15T04:39:25.185Z,0.00
2023-02-15T04:40:25.137Z,0.00
2023-02-15T04:41:25.115Z,0.00
2023-02-15T04:42:25.124Z,0.00
2023-02-15T04:43:25.031Z,0.00
2023-02-15T04:44:24.988Z,0.00
2023-02-15T04:45:24.949Z,0.00
2023-02-15T04:46:24.912Z,0.00
2023-02-15T04:47:24.867Z,0.00
2023-02-15T04:48:24.902Z,0.00
2023-02-15T04:49:24.794Z,0.00
2023-02-15T04:50:24.760Z,0.00
2023-02-15T04:51:24.721Z,0.00
2023-02-15T04:52:24.680Z,0.00
2023-02-15T04:53:24.637Z,0.00
2023-02-15T04:54:24.703Z,0.00
2023-02-15T04:55:24.557Z,0.00
2023-02-15T04:56:24.562Z,0.00
2023-02-15T04:57:24.478Z,0.00
2023-02-15T04:58:24.449Z,0.00
2023-02-15T04:59:24.403Z,0.00
2023-02-15T05:00:24.420Z,0.00
2023-02-15T05:01:24.390Z,0.00
2023-02-15T05:02:24.287Z,0.00
2023-02-15T05:03:24.251Z,0.00
2023-02-15T05:04:24.263Z,0.00
2023-02-15T05:05:24.170Z,0.00
2023-02-15T05:06:24.209Z,0.00
2023-02-15T05:07:24.092Z,0.00
2023-02-15T05:08:24.061Z,0.00
2023-02-15T05:09:24.018Z,0.00
2023-02-15T05:10:24.057Z,0.00
2023-02-15T05:11:23.948Z,0.00
2023-02-15T05:12:23.955Z,0.00
2023-02-15T05:13:23.863Z,0.00
2023-02-15T05:14:23.833Z,0.00
2023-02-15T05:15:23.809Z,0.00
2023-02-15T05:16:23.819Z,0.00
2023-02-15T05:17:23.763Z,0.00
2023-02-15T05:18:23.672Z,0.00
2023-02-15T05:19:23.641Z,0.00
2023-02-15T05:20:23.589Z,0.00
2023-02-15T05:21:23.554Z,0.00
2023-02-15T05:22:23.521Z,0.00
2023-02-15T05:23:23.524Z,0.00
2023-02-15T05:24:23.453Z,0.00
2023-02-15T05:25:23.400Z,0.00
2023-02-15T05:26:23.362Z,0.00
2023-02-15T05:27:23.326Z,0.00
2023-02-15T05:28:23.285Z,0.00
2023-02-15T05:29:23.310Z,0.00
2023-02-15T05:30:23.458Z,0.00
2023-02-15T05:31:23.525Z,0.00
2023-02-15T05:32:23.278Z,0.00
2023-02-15T05:33:23.143Z,0.00
2023-02-15T05:34:23.079Z,0.00
2023-02-15T05:35:23.259Z,0.00
2023-02-15T05:36:22.978Z,0.00
2023-02-15T05:37:22.964Z,0.00
2023-02-15T05:38:22.906Z,0.00
2023-02-15T05:39:22.912Z,0.00
2023-02-15T05:40:22.825Z,0.00
2023-02-15T05:41:22.840Z,0.00
2023-02-15T05:42:22.751Z,0.00
2023-02-15T05:43:22.707Z,0.00
2023-02-15T05:44:22.667Z,0.00
2023-02-15T05:45:22.634Z,0.00
2023-02-15T05:46:22.665Z,0.00
2023-02-15T05:47:22.620Z,0.00
2023-02-15T05:48:22.519Z,0.00
2023-02-15T05:49:22.481Z,0.00
2023-02-15T05:50:22.447Z,0.00
2023-02-15T05:51:22.426Z,0.00
2023-02-15T05:52:22.359Z,0.00
2023-02-15T05:53:22.393Z,0.00
2023-02-15T05:54:22.288Z,0.00
2023-02-15T05:55:22.246Z,0.00
2023-02-15T05:56:22.206Z,0.00
2023-02-15T05:57:22.174Z,0.00
2023-02-15T05:58:22.134Z,0.00
2023-02-15T05:59:22.164Z,0.00
2023-02-15T06:00:22.064Z,0.00
2023-02-15T06:01:22.019Z,0.00
2023-02-15T06:02:22.080Z,0.00
2023-02-15T06:03:21.976Z,0.00
2023-02-15T06:04:21.904Z,0.00
2023-02-15T06:05:21.934Z,0.00
2023-02-15T06:06:21.823Z,0.00
2023-02-15T06:07:21.790Z,0.00
2023-02-15T06:08:21.754Z,0.00
2023-02-15T06:09:21.730Z,0.00
2023-02-15T06:10:21.673Z,0.00
2023-02-15T06:11:21.685Z,0.00
2023-02-15T06:12:21.598Z,0.00
2023-02-15T06:13:21.561Z,0.00
2023-02-15T06:14:21.548Z,0.00
2023-02-15T06:15:21.509Z,0.00
2023-02-15T06:16:21.464Z,0.00
2023-02-15T06:17:21.453Z,5.63
2023-02-15T06:18:21.359Z,5.63
2023-02-15T06:19:21.331Z,5.63
2023-02-15T06:20:21.280Z,5.63
2023-02-15T06:21:21.250Z,5.63
2023-02-15T06:22:21.216Z,5.63
2023-02-15T06:23:21.223Z,5.63
2023-02-15T06:24:21.130Z,5.63
2023-02-15T06:25:21.097Z,11.25
2023-02-15T06:26:21.062Z,11.25
2023-02-15T06:27:21.017Z,11.25
2023-02-15T06:28:20.984Z,11.25
2023-02-15T06:29:21.020Z,11.25
2023-02-15T06:30:20.968Z,11.25
2023-02-15T06:31:20.960Z,16.88
2023-02-15T06:32:20.832Z,16.88
2023-02-15T06:33:20.789Z,16.88
2023-02-15T06:34:20.751Z,16.88
2023-02-15T06:35:20.776Z,22.50
2023-02-15T06:36:20.665Z,22.50
2023-02-15T06:37:20.627Z,22.50
2023-02-15T06:38:20.602Z,22.50
2023-02-15T06:39:20.580Z,28.13
2023-02-15T06:40:20.520Z,28.13
2023-02-15T06:41:20.532Z,28.13
2023-02-15T06:42:20.433Z,28.13
2023-02-15T06:43:20.410Z,33.75
2023-02-15T06:44:20.428Z,33.75
2023-02-15T06:45:20.316Z,33.75
2023-02-15T06:46:20.292Z,39.38
2023-02-15T06:47:20.314Z,39.38
2023-02-15T06:48:20.206Z,39.38
2023-02-15T06:49:20.168Z,45.00
2023-02-15T06:50:20.126Z,45.00
2023-02-15T06:51:20.087Z,45.00
2023-02-15T06:52:20.046Z,50.63
2023-02-15T06:53:20.059Z,50.63
2023-02-15T06:54:19.972Z,56.25
2023-02-15T06:55:19.928Z,56.25
2023-02-15T06:56:19.899Z,56.25
2023-02-15T06:57:19.865Z,56.25
2023-02-15T06:58:19.828Z,61.88
2023-02-15T06:59:19.835Z,61.88
2023-02-15T07:00:19.745Z,61.88
2023-02-15T07:01:19.743Z,61.88
2023-02-15T07:02:19.696Z,67.50
2023-02-15T07:03:19.628Z,67.50
2023-02-15T07:04:19.597Z,73.13
2023-02-15T07:05:19.606Z,73.13
2023-02-15T07:06:19.506Z,73.13
2023-02-15T07:07:19.472Z,78.75
2023-02-15T07:08:19.437Z,78.75
2023-02-15T07:09:19.391Z,73.13
2023-02-15T07:10:19.373Z,78.75
2023-02-15T07:11:19.503Z,78.75
2023-02-15T07:12:19.270Z,78.75
2023-02-15T07:13:19.239Z,84.38
2023-02-15T07:14:19.197Z,84.38
2023-02-15T07:15:19.163Z,84.38
2023-02-15T07:16:19.232Z,90.00
2023-02-15T07:17:35.164Z,90.00
2023-02-15T07:18:19.058Z,90.00
2023-02-15T07:19:19.012Z,90.00
2023-02-15T07:20:18.979Z,90.00
2023-02-15T07:21:18.946Z,90.00
2023-02-15T07:22:18.912Z,90.00
2023-02-15T07:23:18.944Z,95.63
2023-02-15T07:24:18.819Z,95.63
2023-02-15T07:25:18.779Z,101.25
2023-02-15T07:26:18.734Z,101.25
2023-02-15T07:27:18.701Z,106.88
2023-02-15T07:28:18.654Z,106.88
2023-02-15T07:29:18.681Z,106.88
2023-02-15T07:30:18.661Z,112.50
2023-02-15T07:31:18.593Z,112.50
2023-02-15T07:32:18.543Z,112.50
2023-02-15T07:33:18.483Z,118.13
2023-02-15T07:34:18.431Z,123.75
2023-02-15T07:35:18.457Z,123.75
2023-02-15T07:36:18.359Z,123.75
2023-02-15T07:37:18.311Z,123.75
2023-02-15T07:38:18.276Z,135.00
2023-02-15T07:39:18.241Z,129.38
2023-02-15T07:40:18.205Z,129.38
2023-02-15T07:41:18.234Z,135.00
2023-02-15T07:42:18.140Z,135.00
2023-02-15T07:43:18.095Z,129.38
2023-02-15T07:44:18.060Z,140.63
2023-02-15T07:45:18.018Z,140.63
2023-02-15T07:46:18.036Z,135.00
2023-02-15T07:47:18.006Z,146.25
2023-02-15T07:48:17.898Z,140.63
2023-02-15T07:49:17.874Z,151.88
2023-02-15T07:50:17.832Z,146.25
2023-02-15T07:51:17.787Z,151.88
2023-02-15T07:52:17.816Z,151.88
2023-02-15T07:53:17.723Z,151.88
2023-02-15T07:54:17.693Z,151.88
2023-02-15T07:55:17.658Z,151.88
2023-02-15T07:56:17.611Z,157.50
2023-02-15T07:57:17.565Z,163.13
2023-02-15T07:58:17.581Z,168.75
2023-02-15T07:59:17.498Z,168.75
2023-02-15T08:00:17.454Z,168.75
2023-02-15T08:01:17.418Z,180.00
2023-02-15T08:02:18.486Z,180.00
2023-02-15T08:03:17.485Z,185.63
2023-02-15T08:04:17.369Z,185.63
2023-02-15T08:05:17.282Z,191.25
2023-02-15T08:06:17.232Z,202.50
2023-02-15T08:07:17.193Z,196.88
2023-02-15T08:08:17.151Z,185.63
2023-02-15T08:09:17.113Z,191.25
2023-02-15T08:10:17.133Z,196.88
2023-02-15T08:11:17.049Z,191.25
2023-02-15T08:12:17.010Z,202.50
2023-02-15T08:13:16.972Z,202.50
2023-02-15T08:14:16.932Z,202.50
2023-02-15T08:15:16.900Z,230.63
2023-02-15T08:16:16.980Z,202.50
2023-02-15T08:17:16.819Z,219.38
2023-02-15T08:18:16.820Z,213.75
2023-02-15T08:19:16.741Z,213.75
2023-02-15T08:20:16.701Z,230.63
2023-02-15T08:21:16.678Z,236.25
2023-02-15T08:22:16.695Z,230.63
2023-02-15T08:23:16.600Z,230.63
2023-02-15T08:24:16.563Z,230.63
2023-02-15T08:25:16.528Z,230.63
2023-02-15T08:26:16.488Z,241.88
2023-02-15T08:27:16.456Z,264.38
2023-02-15T08:28:16.467Z,241.88
2023-02-15T08:29:16.374Z,258.75
2023-02-15T08:30:16.420Z,236.25
2023-02-15T08:31:16.367Z,247.50
2023-02-15T08:32:16.315Z,241.88
2023-02-15T08:33:16.238Z,247.50
2023-02-15T08:34:16.259Z,247.50
2023-02-15T08:35:16.158Z,241.88
2023-02-15T08:36:16.131Z,270.00
2023-02-15T08:37:16.086Z,236.25
2023-02-15T08:38:16.055Z,264.38
2023-02-15T08:39:16.018Z,247.50
2023-02-15T08:40:16.040Z,275.63
2023-02-15T08:41:15.934Z,264.38
2023-02-15T08:42:15.912Z,264.38
2023-02-15T08:43:15.863Z,258.75
2023-02-15T08:44:15.832Z,264.38
2023-02-15T08:45:22.921Z,264.38
2023-02-15T08:46:15.879Z,264.38
2023-02-15T08:47:15.733Z,281.25
2023-02-15T08:48:15.695Z,264.38
2023-02-15T08:49:15.650Z,286.88
2023-02-15T08:50:15.631Z,281.25
2023-02-15T08:51:15.619Z,264.38
2023-02-15T08:52:15.524Z,275.63
2023-02-15T08:53:16.868Z,292.50
2023-02-15T08:54:15.473Z,298.13
2023-02-15T08:55:15.414Z,326.25
2023-02-15T08:56:15.383Z,292.50
2023-02-15T08:57:15.794Z,292.50
2023-02-15T08:58:15.311Z,298.13
2023-02-15T08:59:15.266Z,315.00
2023-02-15T09:00:15.233Z,292.50
2023-02-15T09:01:15.223Z,286.88
2023-02-15T09:02:15.179Z,315.00
2023-02-15T09:03:15.199Z,320.63
2023-02-15T09:04:15.085Z,309.38
2023-02-15T09:05:15.057Z,292.50
2023-02-15T09:06:15.011Z,303.75
2023-02-15T09:07:14.986Z,298.13
2023-02-15T09:08:14.952Z,303.75
2023-02-15T09:09:14.957Z,309.38
2023-02-15T09:10:14.877Z,315.00
2023-02-15T09:11:15.732Z,303.75
2023-02-15T09:12:14.802Z,298.13
2023-02-15T09:13:14.772Z,326.25
2023-02-15T09:14:14.722Z,354.38
2023-02-15T09:15:14.741Z,320.63
2023-02-15T09:16:14.672Z,331.88
2023-02-15T09:17:16.095Z,315.00
2023-02-15T09:18:14.600Z,309.38
2023-02-15T09:19:14.557Z,343.13
2023-02-15T09:20:15.651Z,320.63
2023-02-15T09:21:14.789Z,348.75
2023-02-15T09:22:14.437Z,348.75
2023-02-15T09:23:25.471Z,343.13
2023-02-15T09:24:14.368Z,360.00
2023-02-15T09:25:14.359Z,303.75
2023-02-15T09:26:14.290Z,320.63
2023-02-15T09:27:14.323Z,360.00
2023-02-15T09:28:14.228Z,326.25
2023-02-15T09:29:14.248Z,309.38
2023-02-15T09:30:14.245Z,376.88
2023-02-15T09:31:14.154Z,348.75
2023-02-15T09:32:14.238Z,298.13
2023-02-15T09:33:14.096Z,337.50
2023-02-15T09:34:14.083Z,337.50
2023-02-15T09:35:14.005Z,365.63
2023-02-15T09:36:13.948Z,331.88
2023-02-15T09:37:13.922Z,309.38
2023-02-15T09:38:13.921Z,371.25
2023-02-15T09:39:13.839Z,348.75
2023-02-15T09:40:13.936Z,315.00
2023-02-15T09:41:13.785Z,326.25
2023-02-15T09:42:13.799Z,371.25
2023-02-15T09:43:13.709Z,337.50
2023-02-15T09:44:13.657Z,354.38
2023-02-15T09:45:13.610Z,337.50
2023-02-15T09:46:13.668Z,326.25
2023-02-15T09:47:13.549Z,376.88
2023-02-15T09:48:13.518Z,354.38
2023-02-15T09:49:13.489Z,331.88
2023-02-15T09:50:13.457Z,393.75
2023-02-15T09:51:13.406Z,360.00
2023-02-15T09:52:13.484Z,337.50
2023-02-15T09:53:13.329Z,382.50
2023-02-15T09:54:13.293Z,371.25
2023-02-15T09:55:13.258Z,365.63
2023-02-15T09:56:13.230Z,376.88
2023-02-15T09:57:13.270Z,371.25
2023-02-15T09:58:13.226Z,371.25
2023-02-15T09:59:13.122Z,382.50
2023-02-15T10:00:13.101Z,382.50
2023-02-15T10:01:13.047Z,360.00
2023-02-15T10:02:13.027Z,365.63
2023-02-15T10:03:13.003Z,365.63
2023-02-15T10:04:13.042Z,376.88
2023-02-15T10:05:12.916Z,376.88
2023-02-15T10:06:12.879Z,371.25
2023-02-15T10:07:12.851Z,354.38
2023-02-15T10:08:12.830Z,371.25
2023-02-15T10:09:12.799Z,365.63
2023-02-15T10:10:12.794Z,354.38
2023-02-15T10:11:12.795Z,343.13
2023-02-15T10:12:12.657Z,348.75
2023-02-15T10:13:12.632Z,354.38
2023-02-15T10:14:12.598Z,371.25
2023-02-15T10:15:12.583Z,371.25
2023-02-15T10:16:12.567Z,371.25
2023-02-15T10:17:12.491Z,354.38
2023-02-15T10:18:12.460Z,354.38
2023-02-15T10:19:12.411Z,360.00
2023-02-15T10:20:12.385Z,315.00
2023-02-15T10:21:12.347Z,331.88
2023-02-15T10:22:12.369Z,331.88
2023-02-15T10:23:12.281Z,264.38
2023-02-15T10:24:12.249Z,241.88
2023-02-15T10:25:12.207Z,236.25
2023-02-15T10:26:12.183Z,230.63
2023-02-15T10:27:12.136Z,225.00
2023-02-15T10:28:12.169Z,225.00
2023-02-15T10:29:12.070Z,219.38
2023-02-15T10:30:12.061Z,219.38
2023-02-15T10:31:12.137Z,219.38
2023-02-15T10:32:12.038Z,213.75
2023-02-15T10:33:11.922Z,219.38
2023-02-15T10:34:11.934Z,219.38
2023-02-15T10:35:11.850Z,213.75
2023-02-15T10:36:11.807Z,208.13
2023-02-15T10:37:11.775Z,208.13
2023-02-15T10:38:11.738Z,213.75
2023-02-15T10:39:11.700Z,213.75
2023-02-15T10:40:11.720Z,213.75
2023-02-15T10:41:11.642Z,208.13
2023-02-15T10:42:11.612Z,208.13
2023-02-15T10:43:11.567Z,213.75
2023-02-15T10:44:11.532Z,208.13
2023-02-15T10:45:11.498Z,208.13
2023-02-15T10:46:11.524Z,208.13
2023-02-15T10:47:12.750Z,208.13
2023-02-15T10:48:11.381Z,208.13
2023-02-15T10:49:11.394Z,208.13
2023-02-15T10:50:11.322Z,208.13
2023-02-15T10:51:11.345Z,208.13
2023-02-15T10:52:11.253Z,208.13
2023-02-15T10:53:11.210Z,208.13
2023-02-15T10:54:11.175Z,202.50
2023-02-15T10:55:11.130Z,202.50
2023-02-15T10:56:11.097Z,202.50
2023-02-15T10:57:11.124Z,202.50
2023-02-15T10:58:11.026Z,202.50
2023-02-15T10:59:10.993Z,202.50
2023-02-15T11:00:10.945Z,202.50
2023-02-15T11:01:10.939Z,202.50
2023-02-15T11:02:10.886Z,202.50
2023-02-15T11:03:10.916Z,196.88
2023-02-15T11:04:10.822Z,196.88
2023-02-15T11:05:10.848Z,196.88
2023-02-15T11:06:10.737Z,196.88
2023-02-15T11:07:10.695Z,196.88
2023-02-15T11:08:10.753Z,196.88
2023-02-15T11:09:10.750Z,196.88
2023-02-15T11:10:10.591Z,196.88
2023-02-15T11:11:10.586Z,196.88
2023-02-15T11:12:10.552Z,196.88
2023-02-15T11:13:10.478Z,196.88
2023-02-15T11:14:10.459Z,196.88
2023-02-15T11:15:10.475Z,196.88
2023-02-15T11:16:10.405Z,196.88
2023-02-15T11:17:10.347Z,196.88
2023-02-15T11:18:10.307Z,196.88
2023-02-15T11:19:10.266Z,196.88
2023-02-15T11:20:10.241Z,196.88
2023-02-15T11:21:10.276Z,196.88
2023-02-15T11:22:10.153Z,196.88
2023-02-15T11:23:10.133Z,196.88
2023-02-15T11:24:10.092Z,196.88
2023-02-15T11:25:10.068Z,196.88
2023-02-15T11:26:10.022Z,196.88
2023-02-15T11:27:10.073Z,196.88
2023-02-15T11:28:09.956Z,191.25
2023-02-15T11:29:09.909Z,196.88
2023-02-15T11:30:09.924Z,196.88
2023-02-15T11:31:09.974Z,196.88
2023-02-15T11:32:09.888Z,191.25
2023-02-15T11:33:09.875Z,191.25
2023-02-15T11:34:09.730Z,191.25
2023-02-15T11:35:09.695Z,191.25
2023-02-15T11:36:09.659Z,191.25
2023-02-15T11:37:09.630Z,191.25
2023-02-15T11:38:09.592Z,191.25
2023-02-15T11:39:09.732Z,196.88
2023-02-15T11:40:09.512Z,191.25
2023-02-15T11:41:09.474Z,191.25
2023-02-15T11:42:09.437Z,196.88
2023-02-15T11:43:09.409Z,196.88
2023-02-15T11:44:09.391Z,196.88
2023-02-15T11:45:09.383Z,196.88
2023-02-15T11:46:11.345Z,196.88
2023-02-15T11:47:09.264Z,196.88
2023-02-15T11:48:09.237Z,196.88
2023-02-15T11:49:09.240Z,196.88
2023-02-15T11:50:09.165Z,196.88
2023-02-15T11:51:09.251Z,196.88
2023-02-15T11:52:09.123Z,196.88
2023-02-15T11:53:09.043Z,196.88
2023-02-15T11:54:09.019Z,196.88
2023-02-15T11:55:08.993Z,196.88
2023-02-15T11:56:08.939Z,191.25
2023-02-15T11:57:08.958Z,191.25
2023-02-15T11:58:08.875Z,191.25
2023-02-15T11:59:08.836Z,191.25
2023-02-15T12:00:08.796Z,191.25
2023-02-15T12:01:08.766Z,191.25
2023-02-15T12:02:08.731Z,191.25
2023-02-15T12:03:08.764Z,191.25
2023-02-15T12:04:08.711Z,191.25
2023-02-15T12:05:08.620Z,191.25
2023-02-15T12:06:08.599Z,191.25
2023-02-15T12:07:08.555Z,191.25
2023-02-15T12:08:08.513Z,191.25
2023-02-15T12:09:08.561Z,191.25
2023-02-15T12:10:08.449Z,191.25
2023-02-15T12:11:08.424Z,191.25
2023-02-15T12:12:08.383Z,191.25
2023-02-15T12:13:08.345Z,196.88
2023-02-15T12:14:08.318Z,196.88
2023-02-15T12:15:08.340Z,196.88
2023-02-15T12:16:11.082Z,196.88
2023-02-15T12:17:08.203Z,196.88
2023-02-15T12:18:08.185Z,196.88
2023-02-15T12:19:08.194Z,196.88
2023-02-15T12:20:08.107Z,196.88
2023-02-15T12:21:08.147Z,202.50
2023-02-15T12:22:10.338Z,202.50
2023-02-15T12:23:08.027Z,202.50
2023-02-15T12:24:07.953Z,202.50
2023-02-15T12:25:07.934Z,202.50
2023-02-15T12:26:07.900Z,208.13
2023-02-15T12:27:07.927Z,208.13
2023-02-15T12:28:07.837Z,213.75
2023-02-15T12:29:07.788Z,213.75
2023-02-15T12:30:07.803Z,219.38
2023-02-15T12:31:07.742Z,219.38
2023-02-15T12:32:07.817Z,225.00
2023-02-15T12:33:07.718Z,230.63
2023-02-15T12:34:07.619Z,230.63
2023-02-15T12:35:07.633Z,230.63
2023-02-15T12:36:07.544Z,241.88
2023-02-15T12:37:07.520Z,236.25
2023-02-15T12:38:07.478Z,236.25
2023-02-15T12:39:07.501Z,236.25
2023-02-15T12:40:07.432Z,236.25
2023-02-15T12:41:07.377Z,236.25
2023-02-15T12:42:07.340Z,236.25
2023-02-15T12:43:08.924Z,236.25
2023-02-15T12:44:07.433Z,236.25
2023-02-15T12:45:07.303Z,236.25
2023-02-15T12:46:07.205Z,236.25
2023-02-15T12:47:07.250Z,230.63
2023-02-15T12:48:07.180Z,230.63
2023-02-15T12:49:07.099Z,230.63
2023-02-15T12:50:12.121Z,230.63
2023-02-15T12:51:07.769Z,230.63
2023-02-15T12:52:07.006Z,230.63
2023-02-15T12:53:07.012Z,225.00
2023-02-15T12:54:07.000Z,230.63